Time;durP1;ratioP1;P1;durP2;ratioP2;P2;SDS_P1;SDS_P2;PMS_P1;PMS_P2;Temp;Humidity;BMP_temperature;BMP_pressure;BME280_temperature;BME280_humidity;BME280_pressure;Samples;Min_cycle;Max_cycle;Signal;HPM_P1;HPM_P2
2022/03/26 00:00:03;;;;;;;46.63;26.83;;;;;;;6.72;69.88;103073.53;5043177;28;20041;-78
2022/03/26 00:02:29;;;;;;;48.13;27.25;;;;;;;6.61;69.98;103071.84;5042252;28;20095;-78
2022/03/26 00:04:54;;;;;;;46.33;25.17;;;;;;;6.58;70.05;103080.34;5042850;28;20021;-77
2022/03/26 00:07:20;;;;;;;44.53;26.00;;;;;;;6.52;70.20;103074.63;5041165;28;20116;-78
2022/03/26 00:09:46;;;;;;;47.03;27.10;;;;;;;6.47;70.66;103081.38;5043199;28;20060;-78
2022/03/26 00:12:11;;;;;;;47.72;27.05;;;;;;;6.45;71.02;103079.81;5036178;28;20060;-76
2022/03/26 00:14:36;;;;;;;44.42;26.05;;;;;;;6.40;70.88;103083.00;5041329;28;20037;-77
2022/03/26 00:17:01;;;;;;;47.03;26.58;;;;;;;6.40;70.88;103069.34;5041163;28;20020;-77
2022/03/26 00:19:27;;;;;;;45.17;25.15;;;;;;;6.33;71.02;103081.84;5041829;28;20070;-78
2022/03/26 00:21:53;;;;;;;46.65;26.70;;;;;;;6.23;71.78;103075.56;5040557;28;20029;-77
2022/03/26 00:24:18;;;;;;;47.00;28.17;;;;;;;6.22;71.85;103079.28;5038697;28;20021;-78
2022/03/26 00:26:43;;;;;;;43.00;25.25;;;;;;;6.21;72.42;103072.13;5042350;28;20435;-77
2022/03/26 00:29:09;;;;;;;46.63;27.77;;;;;;;6.11;72.14;103077.59;5042003;28;20107;-75
2022/03/26 00:31:37;;;;;;;47.33;27.08;;;;;;;5.98;72.53;103068.84;5041673;28;20447;-78
2022/03/26 00:34:03;;;;;;;44.80;27.48;;;;;;;6.00;72.85;103074.19;5041681;28;20063;-78
2022/03/26 00:36:28;;;;;;;42.25;25.63;;;;;;;6.01;72.44;103075.91;5041658;28;20124;-78
2022/03/26 00:38:54;;;;;;;49.78;27.10;;;;;;;5.99;72.74;103076.06;5041709;28;20116;-78
2022/03/26 00:41:19;;;;;;;46.40;26.30;;;;;;;5.95;73.47;103069.16;5042257;28;20056;-77
2022/03/26 00:43:44;;;;;;;44.88;25.60;;;;;;;5.90;73.63;103068.72;5039148;28;20055;-77
2022/03/26 00:46:10;;;;;;;48.42;27.73;;;;;;;5.87;73.47;103071.72;5041840;28;20033;-77
2022/03/26 00:48:36;;;;;;;46.50;26.67;;;;;;;5.75;73.68;103072.88;5041970;28;20523;-78
2022/03/26 00:51:01;;;;;;;43.75;26.15;;;;;;;5.73;74.15;103064.88;5041084;28;20132;-78
2022/03/26 00:53:26;;;;;;;50.40;26.77;;;;;;;5.72;74.17;103066.69;5040998;28;20772;-78
2022/03/26 00:55:51;;;;;;;48.00;26.58;;;;;;;5.70;73.82;103063.28;5041505;28;20047;-78
2022/03/26 00:58:17;;;;;;;47.25;28.17;;;;;;;5.74;74.18;103058.41;5041431;28;20395;-77
2022/03/26 01:00:42;;;;;;;47.50;27.10;;;;;;;5.71;74.32;103064.13;5041979;28;20127;-78
2022/03/26 01:03:09;;;;;;;45.60;28.38;;;;;;;5.65;74.47;103053.81;5038990;28;20081;-77
2022/03/26 01:05:35;;;;;;;49.83;28.33;;;;;;;5.60;74.78;103062.41;5039649;28;20421;-78
2022/03/26 01:08:00;;;;;;;47.67;27.33;;;;;;;5.54;74.77;103063.00;5041201;28;20041;-78
2022/03/26 01:10:26;;;;;;;46.30;27.55;;;;;;;5.45;74.77;103053.81;5042362;28;20452;-78
2022/03/26 01:12:53;;;;;;;49.78;27.88;;;;;;;5.43;75.49;103054.97;5038678;28;20304;-78
2022/03/26 01:15:18;;;;;;;48.25;27.50;;;;;;;5.40;75.27;103061.53;5041303;28;20102;-78
2022/03/26 01:17:44;;;;;;;47.53;27.85;;;;;;;5.35;75.19;103060.25;5042509;28;20486;-78
2022/03/26 01:20:09;;;;;;;50.38;27.30;;;;;;;5.33;75.66;103056.81;5041668;28;20355;-68
2022/03/26 01:22:35;;;;;;;44.13;26.63;;;;;;;5.34;75.96;103053.09;5040693;28;20075;-78
2022/03/26 01:25:00;;;;;;;47.58;27.52;;;;;;;5.38;75.60;103063.56;5040737;28;20025;-78
2022/03/26 01:27:25;;;;;;;47.50;26.92;;;;;;;5.35;75.84;103057.53;5040927;28;20045;-77
2022/03/26 01:29:50;;;;;;;44.20;26.73;;;;;;;5.32;75.74;103058.69;5041617;28;20057;-79
2022/03/26 01:32:16;;;;;;;43.53;25.77;;;;;;;5.32;76.02;103055.06;5040445;28;20083;-77
2022/03/26 01:34:41;;;;;;;46.20;26.63;;;;;;;5.31;76.18;103062.38;5042315;28;20040;-77
2022/03/26 01:37:07;;;;;;;47.95;24.98;;;;;;;5.34;76.21;103058.53;5041555;28;20503;-77
2022/03/26 01:39:32;;;;;;;45.15;27.30;;;;;;;5.35;76.30;103061.09;5038462;28;20029;-78
2022/03/26 01:42:03;;;;;;;48.28;26.23;;;;;;;5.38;76.33;103057.25;5039560;28;20111;-78
2022/03/26 01:44:28;;;;;;;44.92;26.17;;;;;;;5.41;76.02;103059.69;5040270;28;20171;-77
2022/03/26 01:46:54;;;;;;;51.53;26.77;;;;;;;5.45;76.35;103055.66;5041600;28;20039;-78
2022/03/26 01:49:20;;;;;;;50.20;26.83;;;;;;;5.51;76.13;103066.00;5040902;28;20554;-77
2022/03/26 01:51:46;;;;;;;45.60;25.80;;;;;;;5.56;76.01;103065.56;5040958;28;20138;-77
2022/03/26 01:54:12;;;;;;;44.90;26.17;;;;;;;5.57;75.77;103059.09;5039200;28;20509;-77
2022/03/26 01:56:39;;;;;;;47.08;26.13;;;;;;;5.69;75.23;103061.56;5041171;28;20348;-77
2022/03/26 01:59:05;;;;;;;45.72;25.88;;;;;;;5.69;75.58;103063.41;5042015;28;20029;-76
2022/03/26 02:01:34;;;;;;;46.03;25.00;;;;;;;5.69;75.36;103068.88;5041232;28;20029;-78
2022/03/26 02:04:03;;;;;;;44.70;25.60;;;;;;;5.61;75.60;103058.66;5043788;28;20415;-77
2022/03/26 02:06:33;;;;;;;46.80;25.67;;;;;;;5.55;75.59;103059.25;5044642;28;20116;-78
2022/03/26 02:09:06;;;;;;;48.00;26.60;;;;;;;5.51;76.06;103057.81;5045381;28;20029;-78
2022/03/26 02:11:34;;;;;;;49.38;26.77;;;;;;;5.47;76.08;103057.25;5040639;28;20035;-78
2022/03/26 02:13:59;;;;;;;48.85;27.02;;;;;;;5.46;75.91;103057.38;5044385;28;20112;-78
2022/03/26 02:16:26;;;;;;;47.42;27.00;;;;;;;5.41;76.07;103068.72;5044026;28;20168;-78
2022/03/26 02:18:52;;;;;;;51.92;26.35;;;;;;;5.37;76.04;103060.97;5044619;28;20052;-78
2022/03/26 02:21:19;;;;;;;48.70;26.15;;;;;;;5.29;76.12;103058.09;5044457;28;20025;-78
2022/03/26 02:23:45;;;;;;;45.53;24.90;;;;;;;5.32;76.26;103063.25;5042894;28;20028;-78
2022/03/26 02:26:14;;;;;;;48.88;25.83;;;;;;;5.25;76.58;103070.28;5044404;28;20043;-78
2022/03/26 02:28:41;;;;;;;51.25;27.10;;;;;;;5.23;76.84;103066.84;5044210;28;20095;-77
2022/03/26 02:31:06;;;;;;;47.35;26.92;;;;;;;5.20;76.68;103060.66;5044451;28;20033;-78
2022/03/26 02:33:31;;;;;;;49.13;26.35;;;;;;;5.19;76.85;103063.53;5043692;28;20129;-78
2022/03/26 02:35:57;;;;;;;48.58;27.02;;;;;;;5.14;77.21;103054.94;5044016;28;20025;-78
2022/03/26 02:38:23;;;;;;;52.80;26.42;;;;;;;5.11;77.43;103058.78;5044121;28;20333;-78
2022/03/26 02:40:48;;;;;;;45.10;24.90;;;;;;;5.06;77.28;103060.19;5042110;28;20498;-78
2022/03/26 02:43:14;;;;;;;49.03;25.75;;;;;;;4.97;77.65;103053.75;5041989;28;20262;-78
2022/03/26 02:45:46;;;;;;;46.78;26.13;;;;;;;4.94;77.74;103063.03;5045003;28;20538;-78
2022/03/26 02:48:13;;;;;;;51.22;26.55;;;;;;;4.93;77.44;103060.47;5041929;28;20036;-76
2022/03/26 02:50:42;;;;;;;47.90;25.73;;;;;;;4.92;78.02;103062.34;5044045;28;20314;-69
2022/03/26 02:53:07;;;;;;;46.85;25.85;;;;;;;4.88;77.50;103066.34;5041948;28;20434;-77
2022/03/26 02:55:34;;;;;;;44.60;26.13;;;;;;;4.82;77.78;103057.88;5043550;28;20098;-77
2022/03/26 02:57:59;;;;;;;47.50;26.30;;;;;;;4.74;78.21;103058.53;5042481;28;20108;-77
2022/03/26 03:00:25;;;;;;;46.42;25.58;;;;;;;4.74;78.42;103060.41;5043623;28;20053;-78
2022/03/26 03:02:50;;;;;;;42.80;26.48;;;;;;;4.66;78.02;103055.63;5025329;22;20145;-78
2022/03/26 03:05:15;;;;;;;48.30;26.40;;;;;;;4.61;78.50;103056.09;5010397;28;20025;-78
2022/03/26 03:07:40;;;;;;;48.42;26.08;;;;;;;4.59;78.52;103046.31;5024558;28;20056;-78
2022/03/26 03:10:07;;;;;;;49.53;27.00;;;;;;;4.59;78.85;103052.63;5025091;28;20036;-78
2022/03/26 03:12:32;;;;;;;46.20;26.77;;;;;;;4.50;78.77;103050.72;5021905;28;20040;-78
2022/03/26 03:14:58;;;;;;;48.03;26.83;;;;;;;4.53;79.22;103053.16;5024132;28;20029;-78
2022/03/26 03:17:23;;;;;;;48.13;26.77;;;;;;;4.53;79.41;103055.88;5024090;28;20052;-78
2022/03/26 03:19:48;;;;;;;44.47;25.23;;;;;;;4.51;79.35;103057.00;5024851;28;20029;-78
2022/03/26 03:22:14;;;;;;;53.17;26.90;;;;;;;4.47;78.99;103052.88;5022718;28;20029;-77
2022/03/26 03:24:39;;;;;;;46.75;25.33;;;;;;;4.42;79.38;103058.72;5023670;28;20414;-77
2022/03/26 03:27:05;;;;;;;49.25;26.95;;;;;;;4.40;79.43;103055.25;5024376;28;20020;-78
2022/03/26 03:29:31;;;;;;;44.28;25.85;;;;;;;4.35;79.65;103063.81;5024729;28;20026;-77
2022/03/26 03:31:57;;;;;;;51.55;26.65;;;;;;;4.33;79.53;103076.69;5023812;28;20026;-77
2022/03/26 03:34:22;;;;;;;49.42;26.95;;;;;;;4.32;79.55;103068.69;5023890;28;20357;-78
2022/03/26 03:36:48;;;;;;;49.60;27.35;;;;;;;4.25;79.36;103073.78;5024010;28;20037;-78
2022/03/26 03:39:13;;;;;;;45.88;26.30;;;;;;;4.24;79.60;103066.63;5023908;28;20041;-78
2022/03/26 03:41:39;;;;;;;44.83;25.98;;;;;;;4.19;80.00;103070.75;5021464;28;20403;-77
2022/03/26 03:44:05;;;;;;;50.30;26.05;;;;;;;4.17;80.02;103065.44;5023493;28;20499;-77
2022/03/26 03:46:31;;;;;;;47.65;26.42;;;;;;;4.14;80.06;103076.59;5023012;28;20115;-77
2022/03/26 03:48:56;;;;;;;49.55;26.48;;;;;;;4.09;80.12;103070.69;5024847;28;20069;-78
2022/03/26 03:51:22;;;;;;;48.15;25.65;;;;;;;4.05;80.37;103067.34;5022060;28;20053;-77
2022/03/26 03:53:47;;;;;;;51.20;25.40;;;;;;;4.05;80.63;103072.81;5024678;28;20021;-77
2022/03/26 03:56:13;;;;;;;46.78;25.83;;;;;;;4.07;80.46;103069.97;5023666;28;20034;-77
2022/03/26 03:58:38;;;;;;;52.33;26.02;;;;;;;4.06;80.42;103079.13;5022988;28;20030;-76
2022/03/26 04:01:03;;;;;;;45.17;25.38;;;;;;;4.04;80.30;103071.09;5024381;28;20048;-77
2022/03/26 04:03:29;;;;;;;46.95;25.58;;;;;;;3.99;80.17;103067.91;5023034;28;20175;-77
2022/03/26 04:05:54;;;;;;;48.10;25.13;;;;;;;3.99;80.50;103078.78;5024025;28;20483;-78
2022/03/26 04:08:21;;;;;;;47.08;25.27;;;;;;;3.96;80.34;103073.63;5022812;28;20440;-78
2022/03/26 04:10:46;;;;;;;48.92;25.20;;;;;;;3.97;80.33;103071.75;5023544;28;20396;-77
2022/03/26 04:13:12;;;;;;;42.88;24.70;;;;;;;3.96;80.72;103073.63;5022075;28;20063;-77
2022/03/26 04:15:37;;;;;;;48.40;26.10;;;;;;;3.97;80.49;103071.75;5023695;28;20037;-77
2022/03/26 04:18:03;;;;;;;45.97;26.08;;;;;;;4.02;80.63;103074.94;5023522;28;20029;-77
2022/03/26 04:20:28;;;;;;;51.03;26.25;;;;;;;3.99;80.90;103073.34;5021991;28;20511;-77
2022/03/26 04:22:53;;;;;;;48.55;25.95;;;;;;;4.02;80.99;103074.94;5020764;28;20475;-77
2022/03/26 04:25:18;;;;;;;52.95;26.73;;;;;;;3.99;81.00;103081.50;5022994;28;20033;-77
2022/03/26 04:27:44;;;;;;;42.70;25.55;;;;;;;3.97;80.94;103075.34;5022915;28;20091;-77
2022/03/26 04:30:11;;;;;;;47.33;27.58;;;;;;;3.93;81.02;103078.44;5023246;28;20027;-77
2022/03/26 04:32:36;;;;;;;50.97;26.17;;;;;;;3.92;80.98;103077.59;5010046;28;20453;-78
2022/03/26 04:35:02;;;;;;;45.08;24.88;;;;;;;3.85;80.74;103081.81;5020293;28;20033;-77
2022/03/26 04:37:28;;;;;;;49.55;26.15;;;;;;;3.83;81.12;103075.66;5022834;28;20488;-77
2022/03/26 04:39:53;;;;;;;51.53;27.42;;;;;;;3.87;81.65;103066.25;5023168;28;20029;-78
2022/03/26 04:42:18;;;;;;;46.60;26.63;;;;;;;3.83;80.94;103078.38;5019799;28;20199;-78
2022/03/26 04:44:43;;;;;;;50.20;26.52;;;;;;;3.81;81.26;103075.81;5022234;28;20446;-76
2022/03/26 04:47:09;;;;;;;49.00;26.83;;;;;;;3.76;81.12;103072.63;5003113;28;20029;-77
2022/03/26 04:49:34;;;;;;;52.47;26.73;;;;;;;3.76;81.27;103074.47;5019541;28;20033;-78
2022/03/26 04:51:59;;;;;;;46.00;25.40;;;;;;;3.68;81.78;103075.13;5018978;28;20029;-78
2022/03/26 04:54:24;;;;;;;47.85;25.63;;;;;;;3.64;81.60;103077.22;5021589;28;20404;-78
2022/03/26 04:56:50;;;;;;;46.47;25.88;;;;;;;3.61;81.89;103079.38;5022003;28;20040;-78
2022/03/26 04:59:15;;;;;;;56.85;26.67;;;;;;;3.55;82.10;103075.31;5021948;28;20542;-78
2022/03/26 05:01:44;;;;;;;53.33;26.02;;;;;;;3.54;82.37;103073.56;5021385;28;20044;-78
2022/03/26 05:04:09;;;;;;;52.00;26.27;;;;;;;3.52;82.44;103081.00;5022748;28;20084;-70
2022/03/26 05:06:34;;;;;;;56.05;28.08;;;;;;;3.46;82.34;103076.09;5022953;28;20029;-78
2022/03/26 05:09:00;;;;;;;52.50;27.20;;;;;;;3.46;82.70;103077.94;5022857;28;20013;-78
2022/03/26 05:11:25;;;;;;;48.70;27.25;;;;;;;3.46;82.70;103081.53;5019369;28;20025;-77
2022/03/26 05:13:50;;;;;;;54.58;27.77;;;;;;;3.48;82.64;103076.81;5023079;28;20080;-77
2022/03/26 05:16:15;;;;;;;50.63;26.75;;;;;;;3.49;82.83;103086.66;5022213;28;20060;-77
2022/03/26 05:18:41;;;;;;;56.33;28.83;;;;;;;3.52;82.51;103088.28;5023038;28;20041;-77
2022/03/26 05:21:07;;;;;;;52.85;27.23;;;;;;;3.51;82.44;103078.41;5021965;28;20025;-77
2022/03/26 05:23:33;;;;;;;53.15;27.55;;;;;;;3.49;82.54;103081.25;5021174;28;20072;-76
2022/03/26 05:25:59;;;;;;;48.05;26.80;;;;;;;3.52;82.62;103096.44;5022183;28;20026;-76
2022/03/26 05:28:24;;;;;;;47.38;27.35;;;;;;;3.51;82.77;103095.56;5021073;28;20021;-76
2022/03/26 05:30:51;;;;;;;52.15;28.10;;;;;;;3.54;83.05;103097.16;5022845;28;20036;-76
2022/03/26 05:33:16;;;;;;;49.60;26.80;;;;;;;3.54;83.01;103102.59;5021394;28;20025;-74
2022/03/26 05:35:42;;;;;;;50.90;27.77;;;;;;;3.54;82.74;103094.44;5021746;28;20048;-75
2022/03/26 05:38:07;;;;;;;56.45;28.60;;;;;;;3.51;82.90;103095.56;5025111;28;20101;-76
2022/03/26 05:40:32;;;;;;;50.75;27.88;;;;;;;3.47;82.79;103104.97;5025825;28;20060;-76
2022/03/26 05:42:58;;;;;;;52.92;27.17;;;;;;;3.48;83.06;103112.13;5025108;28;20452;-75
2022/03/26 05:45:24;;;;;;;56.50;28.00;;;;;;;3.49;83.10;103108.41;5024619;28;20037;-76
2022/03/26 05:47:51;;;;;;;57.08;28.13;;;;;;;3.53;83.05;103120.75;5026661;28;20063;-76
2022/03/26 05:50:17;;;;;;;53.88;27.55;;;;;;;3.55;82.92;103113.34;5025792;28;20033;-76
2022/03/26 05:52:42;;;;;;;54.63;28.77;;;;;;;3.58;82.92;103118.50;5025714;28;20048;-76
2022/03/26 05:55:08;;;;;;;50.65;28.23;;;;;;;3.62;82.78;103106.41;5026056;28;20538;-68
2022/03/26 05:57:34;;;;;;;58.63;28.90;;;;;;;3.63;82.66;103104.53;5024209;28;20270;-78
2022/03/26 06:00:00;;;;;;;54.92;28.48;;;;;;;3.72;83.05;103120.06;5025315;28;20425;-78
2022/03/26 06:02:26;;;;;;;49.55;28.45;;;;;;;3.77;82.83;103115.09;5018582;28;20049;-78
2022/03/26 06:04:51;;;;;;;56.33;29.63;;;;;;;3.87;82.84;103112.47;5016063;28;20033;-78
2022/03/26 06:07:16;;;;;;;57.08;29.45;;;;;;;3.94;82.36;103121.81;5023457;28;20033;-78
2022/03/26 06:09:41;;;;;;;53.33;29.25;;;;;;;4.06;82.76;103112.63;5023328;28;20427;-78
2022/03/26 06:12:07;;;;;;;54.78;29.17;;;;;;;4.12;81.75;103117.53;5022221;28;20029;-78
2022/03/26 06:14:34;;;;;;;53.28;29.83;;;;;;;4.21;81.91;103117.69;5012463;28;20017;-78
2022/03/26 06:16:59;;;;;;;52.63;29.77;;;;;;;4.30;82.04;103119.63;5023041;28;20202;-78
2022/03/26 06:19:25;;;;;;;61.63;30.55;;;;;;;4.47;81.94;103127.19;5023185;28;20104;-77
2022/03/26 06:21:50;;;;;;;64.68;32.33;;;;;;;4.69;81.37;103127.00;5021919;28;20438;-78
2022/03/26 06:24:16;;;;;;;57.47;30.90;;;;;;;4.82;81.10;103131.38;5024012;28;20034;-78
2022/03/26 06:26:43;;;;;;;54.20;29.50;;;;;;;4.99;80.16;103132.56;5023591;28;20506;-78
2022/03/26 06:29:09;;;;;;;56.30;30.05;;;;;;;5.14;79.94;103132.06;5024947;28;20097;-78
2022/03/26 06:31:34;;;;;;;63.72;30.85;;;;;;;5.27;79.46;103134.53;5023133;28;20030;-78
2022/03/26 06:34:00;;;;;;;71.88;31.52;;;;;;;5.40;78.96;103131.53;5023382;28;20021;-77
2022/03/26 06:36:26;;;;;;;56.15;30.02;;;;;;;5.56;78.91;103137.28;5018086;28;20083;-77
2022/03/26 06:38:51;;;;;;;60.55;30.73;;;;;;;5.64;78.93;103134.72;5020305;28;20138;-78
2022/03/26 06:41:16;;;;;;;61.30;30.83;;;;;;;5.76;78.25;103132.72;5019800;28;20056;-77
2022/03/26 06:43:43;;;;;;;65.38;31.75;;;;;;;5.86;77.36;103135.44;5020528;28;20061;-77
2022/03/26 06:46:09;;;;;;;53.97;31.23;;;;;;;5.91;77.69;103135.88;5023415;28;20426;-78
2022/03/26 06:48:35;;;;;;;60.22;32.17;;;;;;;5.98;77.85;103143.41;5024280;28;20112;-77
2022/03/26 06:51:02;;;;;;;60.80;31.55;;;;;;;6.21;76.01;103141.19;5024081;28;20021;-78
2022/03/26 06:53:30;;;;;;;59.60;33.28;;;;;;;6.40;75.74;103144.91;5022358;28;20234;-77
2022/03/26 06:55:56;;;;;;;62.42;32.97;;;;;;;6.47;75.66;103137.84;5023037;28;20057;-78
2022/03/26 06:58:22;;;;;;;64.72;31.75;;;;;;;6.53;75.45;103139.97;5022166;28;20459;-78
2022/03/26 07:00:48;;;;;;;62.90;33.40;;;;;;;6.70;74.88;103136.50;5022526;28;20041;-77
2022/03/26 07:03:13;;;;;;;65.80;33.95;;;;;;;6.92;73.64;103137.13;5022955;28;20396;-77
2022/03/26 07:05:38;;;;;;;63.45;32.60;;;;;;;7.13;72.09;103135.00;5023401;28;20117;-76
2022/03/26 07:08:05;;;;;;;66.63;33.42;;;;;;;7.41;70.45;103137.72;5024031;28;20507;-77
2022/03/26 07:10:30;;;;;;;65.30;32.75;;;;;;;7.76;70.41;103139.66;5022457;28;20416;-75
2022/03/26 07:12:56;;;;;;;69.97;34.10;;;;;;;8.30;69.91;103135.81;5021445;28;20084;-76
2022/03/26 07:15:21;;;;;;;65.20;33.13;;;;;;;8.68;68.58;103139.19;5023244;28;20042;-75
2022/03/26 07:17:46;;;;;;;59.90;31.50;;;;;;;8.89;66.73;103140.69;5022664;28;20033;-76
2022/03/26 07:20:12;;;;;;;64.85;33.28;;;;;;;9.08;65.70;103143.19;5020445;28;20399;-75
2022/03/26 07:22:38;;;;;;;67.30;33.80;;;;;;;9.24;63.82;103136.91;5022476;28;20391;-75
2022/03/26 07:25:04;;;;;;;67.55;34.42;;;;;;;9.42;64.01;103140.38;5023717;28;20037;-74
2022/03/26 07:27:31;;;;;;;68.53;31.60;;;;;;;9.56;62.31;103138.88;5020946;28;20077;-75
2022/03/26 07:29:56;;;;;;;64.28;33.35;;;;;;;9.57;63.25;103141.44;5022908;28;20400;-74
2022/03/26 07:32:23;;;;;;;66.80;32.58;;;;;;;9.75;62.54;103138.56;5018659;28;20036;-74
2022/03/26 07:34:48;;;;;;;64.93;31.83;;;;;;;10.85;58.93;103137.16;5023661;28;20047;-73
2022/03/26 07:37:14;;;;;;;67.45;30.63;;;;;;;11.41;56.83;103146.19;5022927;28;20026;-73
2022/03/26 07:39:39;;;;;;;61.08;30.85;;;;;;;12.06;54.77;103139.41;5022942;28;20100;-72
2022/03/26 07:42:05;;;;;;;67.05;32.22;;;;;;;12.09;53.95;103139.06;5021243;28;20557;-73
2022/03/26 07:44:30;;;;;;;64.20;33.95;;;;;;;12.14;53.97;103146.75;5022702;28;20057;-73
2022/03/26 07:46:56;;;;;;;70.60;32.67;;;;;;;12.23;54.43;103144.81;5023512;28;20041;-73
2022/03/26 07:49:21;;;;;;;64.55;32.58;;;;;;;12.27;53.65;103149.75;5021232;28;20021;-73
2022/03/26 07:51:46;;;;;;;71.38;35.05;;;;;;;12.20;53.86;103148.78;5021759;28;20464;-74
2022/03/26 07:54:11;;;;;;;65.25;34.95;;;;;;;12.66;53.37;103151.44;5021355;28;20013;-73
2022/03/26 07:56:37;;;;;;;69.57;32.25;;;;;;;13.20;51.31;103148.41;5021520;28;20055;-73
2022/03/26 07:59:02;;;;;;;74.55;35.80;;;;;;;13.29;52.33;103144.53;5023954;28;20028;-73
2022/03/26 08:01:28;;;;;;;73.78;35.80;;;;;;;13.18;51.11;103148.59;5019345;28;20046;-73
2022/03/26 08:03:54;;;;;;;72.15;35.58;;;;;;;12.77;52.74;103152.88;5023117;28;20145;-73
2022/03/26 08:06:23;;;;;;;72.18;35.00;;;;;;;12.45;53.68;103164.03;5022893;28;20025;-73
2022/03/26 08:08:49;;;;;;;66.18;33.10;;;;;;;12.58;54.74;103162.56;5023966;28;20032;-74
2022/03/26 08:11:15;;;;;;;73.88;35.40;;;;;;;12.86;53.40;103154.50;5021571;28;20032;-74
2022/03/26 08:13:40;;;;;;;71.97;36.75;;;;;;;13.12;52.30;103160.38;5023340;28;20026;-74
2022/03/26 08:16:08;;;;;;;65.78;33.92;;;;;;;13.11;51.95;103166.97;5021432;28;20041;-74
2022/03/26 08:18:35;;;;;;;74.00;35.22;;;;;;;12.98;51.74;103164.03;5022882;28;20020;-74
2022/03/26 08:21:00;;;;;;;65.65;32.75;;;;;;;12.98;52.45;103170.41;5021072;28;20337;-74
2022/03/26 08:23:25;;;;;;;70.00;32.15;;;;;;;12.92;52.38;103175.81;5021667;28;20025;-74
2022/03/26 08:28:34;;;;;;;69.68;32.00;;;;;;;13.13;53.19;103178.69;5021291;28;20044;-75
2022/03/26 08:31:00;;;;;;;70.05;32.85;;;;;;;13.31;52.46;103183.81;5022689;28;20611;-75
2022/03/26 08:33:25;;;;;;;64.70;31.50;;;;;;;13.45;50.66;103185.72;5020195;28;20033;-74
2022/03/26 08:35:50;;;;;;;67.32;28.80;;;;;;;13.67;49.81;103188.53;5003000;28;20084;-75
2022/03/26 08:38:16;;;;;;;68.47;29.73;;;;;;;14.12;48.23;103175.41;5007086;28;20113;-76
2022/03/26 08:40:41;;;;;;;69.55;31.90;;;;;;;14.45;46.67;103184.88;5021601;28;20478;-76
2022/03/26 08:43:07;;;;;;;69.18;35.15;;;;;;;15.01;49.76;103189.59;5020432;28;20033;-76
2022/03/26 08:45:35;;;;;;;67.30;31.15;;;;;;;15.43;46.11;103193.22;5020613;28;20100;-76
2022/03/26 08:48:00;;;;;;;75.15;34.08;;;;;;;15.31;47.73;103195.72;5022610;28;20029;-76
2022/03/26 08:50:25;;;;;;;47.50;18.88;;;;;;;15.41;45.25;103179.59;5021406;28;20233;-75
2022/03/26 08:52:51;;;;;;;59.38;26.23;;;;;;;14.83;45.15;103195.63;5021576;28;20029;-75
2022/03/26 08:55:17;;;;;;;74.55;34.00;;;;;;;14.50;48.58;103189.84;5020763;28;20232;-76
2022/03/26 08:57:43;;;;;;;69.57;33.40;;;;;;;15.00;47.22;103191.50;5020687;28;20161;-75
2022/03/26 09:00:09;;;;;;;68.88;32.80;;;;;;;15.34;45.25;103195.28;5021848;28;20025;-74
2022/03/26 09:02:35;;;;;;;61.42;30.73;;;;;;;15.95;44.57;103184.25;5021731;28;20041;-76
2022/03/26 09:05:01;;;;;;;71.20;33.60;;;;;;;17.11;43.33;103184.69;5020603;28;20530;-75
2022/03/26 09:07:26;;;;;;;86.68;37.03;;;;;;;18.65;41.88;103179.97;5019591;28;20021;-74
2022/03/26 09:09:52;;;;;;;75.65;34.72;;;;;;;20.07;37.55;103186.28;5021507;28;20105;-75
2022/03/26 09:12:17;;;;;;;86.00;33.47;;;;;;;21.32;35.45;103189.94;5019601;28;20026;-73
2022/03/26 09:14:43;;;;;;;71.43;32.40;;;;;;;21.01;34.48;103193.94;5020008;28;20064;-73
2022/03/26 09:17:09;;;;;;;60.85;28.63;;;;;;;21.65;32.25;103198.47;5020327;28;20488;-67
2022/03/26 09:19:34;;;;;;;72.65;34.90;;;;;;;21.36;34.63;103189.19;5021630;28;20026;-74
2022/03/26 09:22:00;;;;;;;74.80;34.60;;;;;;;22.23;32.92;103194.56;5019995;28;20032;-74
2022/03/26 09:24:25;;;;;;;80.75;33.75;;;;;;;23.24;30.54;103188.09;5018002;28;20055;-72
2022/03/26 09:26:50;;;;;;;71.93;32.27;;;;;;;24.38;28.62;103191.94;5020984;28;20080;-71
2022/03/26 09:29:16;;;;;;;71.88;32.55;;;;;;;24.76;27.29;103194.53;5021279;28;20276;-70
2022/03/26 09:31:42;;;;;;;70.07;30.92;;;;;;;24.37;27.66;103195.88;5021192;28;20499;-70
2022/03/26 09:34:07;;;;;;;75.72;34.20;;;;;;;23.36;28.27;103190.75;5021733;28;20096;-74
2022/03/26 09:36:32;;;;;;;78.85;35.78;;;;;;;23.58;28.48;103188.81;5018785;28;20399;-74
2022/03/26 09:38:58;;;;;;;74.05;35.17;;;;;;;24.75;29.43;103192.84;5021810;28;20082;-74
2022/03/26 09:41:24;;;;;;;81.25;36.55;;;;;;;25.63;28.05;103192.22;5020517;28;20030;-72
2022/03/26 09:43:49;;;;;;;74.20;32.42;;;;;;;26.16;25.40;103190.13;5021001;28;20112;-73
2022/03/26 09:46:15;;;;;;;69.90;33.03;;;;;;;26.32;25.85;103183.38;5018445;28;20224;-73
2022/03/26 09:48:41;;;;;;;68.93;30.52;;;;;;;26.36;26.18;103186.50;5020206;28;20032;-74
2022/03/26 09:51:08;;;;;;;66.80;30.20;;;;;;;26.84;24.85;103182.25;5018751;28;20527;-72
2022/03/26 09:53:34;;;;;;;55.35;24.77;;;;;;;26.43;24.87;103195.53;5021302;28;20091;-72
2022/03/26 09:56:00;;;;;;;68.50;30.80;;;;;;;25.33;26.96;103188.13;5018598;28;20037;-72
2022/03/26 09:58:25;;;;;;;43.67;22.48;;;;;;;25.99;25.04;103187.53;5023988;28;20108;-72
2022/03/26 10:00:53;;;;;;;51.58;26.00;;;;;;;24.44;27.46;103190.91;5010553;28;20519;-74
2022/03/26 10:03:20;;;;;;;54.85;24.73;;;;;;;24.01;27.07;103187.06;5001259;28;20473;-74
2022/03/26 10:05:46;;;;;;;55.15;29.02;;;;;;;24.15;27.75;103185.53;5014159;28;20115;-74
2022/03/26 10:08:22;;;;;;;57.20;28.13;;;;;;;24.99;27.30;103178.34;5018781;28;20107;-75
2022/03/26 10:10:50;;;;;;;57.65;24.23;;;;;;;24.58;25.86;103183.69;5020204;28;20064;-74
2022/03/26 10:13:38;;;;;;;54.33;27.00;;;;;;;25.12;27.24;103180.72;5020896;28;20113;-74
2022/03/26 10:16:07;;;;;;;58.88;27.60;;;;;;;25.28;26.90;103179.69;5019749;28;20374;-75
2022/03/26 10:18:43;;;;;;;65.32;27.98;;;;;;;26.50;25.73;103170.72;5018776;28;20032;-73
2022/03/26 10:21:11;;;;;;;53.38;26.00;;;;;;;27.12;23.03;103175.16;5018439;28;20105;-73
2022/03/26 10:23:41;;;;;;;53.88;26.17;;;;;;;27.39;23.16;103171.94;5022392;28;20386;-73
2022/03/26 10:26:09;;;;;;;56.25;26.58;;;;;;;26.69;26.10;103170.97;5022593;28;20037;-73
2022/03/26 10:28:35;;;;;;;;;;;;;;;26.70;25.47;103178.31;5025252;28;20136;-74
2022/03/26 10:34:09;;;;;;;58.47;29.27;;;;;;;25.93;25.77;103168.13;5005068;28;20484;-74
2022/03/26 10:36:46;;;;;;;57.05;27.67;;;;;;;27.20;24.67;103165.25;5004522;28;20057;-73
2022/03/26 10:39:16;;;;;;;58.65;30.38;;;;;;;28.07;24.13;103167.63;5004440;28;20104;-74
2022/03/26 10:41:42;;;;;;;51.85;29.77;;;;;;;27.96;24.24;103166.03;5007888;28;20029;-74
2022/03/26 10:44:14;;;;;;;54.25;27.67;;;;;;;28.21;25.60;103154.53;5025034;28;20071;-74
2022/03/26 10:46:57;;;;;;;61.88;29.42;;;;;;;26.51;24.27;103160.28;5023943;28;20014;-73
2022/03/26 10:49:33;;;;;;;74.13;29.30;;;;;;;26.49;25.82;103157.75;5003876;28;20057;-74
2022/03/26 10:52:14;;;;;;;50.13;26.73;;;;;;;25.66;27.51;103148.59;5009969;28;20120;-74
2022/03/26 10:54:39;;;;;;;45.63;25.75;;;;;;;25.10;28.89;103149.22;5023863;28;20380;-73
2022/03/26 10:57:05;;;;;;;34.80;18.33;;;;;;;25.38;27.29;103145.13;5023717;28;20030;-74
2022/03/26 10:59:31;;;;;;;41.08;25.10;;;;;;;25.21;27.47;103156.59;5023740;28;20034;-74
2022/03/26 11:01:58;;;;;;;45.15;20.08;;;;;;;25.61;26.79;103153.09;5021887;28;20033;-74
2022/03/26 11:04:25;;;;;;;47.63;25.25;;;;;;;25.13;27.61;103147.81;5024036;28;20091;-73
2022/03/26 11:06:50;;;;;;;31.80;16.50;;;;;;;24.99;27.89;103144.63;5023480;28;20026;-73
2022/03/26 11:09:16;;;;;;;31.70;18.10;;;;;;;23.68;29.19;103160.91;5023533;28;20029;-73
2022/03/26 11:11:43;;;;;;;44.80;25.38;;;;;;;22.62;31.22;103147.06;5021448;28;20022;-73
2022/03/26 11:14:18;;;;;;;44.80;25.10;;;;;;;22.79;31.54;103142.28;5023752;28;20030;-69